الصفحة الرئيسية
METAR-TAF:

METAR-TAF

مطار :

Nosy Be, مدغشقر

دائرة عرض: 13-19S, خط طول: 048-19E, ارتفاع: 10 متر

مراقبة الطقس الحالي

تاريخ ووقت الإصدار 3ساعات و 25 دقيقة قبل الساعة 15:00UTC
ريح 4 عقدة من الغرب/الجنوب الغربي
درجة الحرارة 29°درجة مئوية
ضغط 1009 hPa
الرؤية 10 كم أو أكثر
غيوم متفرقة على ارتفاع 2000 قدم

METAR: FMNN 011500Z 24004KT 9999 SCT020 29/// Q1009

زمن: 21:25 (18:25 UTC)

توقعات

تاريخ ووقت الإصدار 1ساعة و 25 دقيقة قبل الساعة 17:00UTC
التوقعات صالحة من01 الساعة 18 UTC إلى 02 الساعة 18 UTC
ريح عقدة من الشمال
الرؤية 10 كم أو أكثر
غيوم متفرقة على ارتفاع 2000 قدم
نظرية الاحتمالات 40% :
مؤقت
من 02 الساعة 00 UTC إلى 02 الساعة 02 UTC
الرؤية: 4500 متر
مطر
نظرية الاحتمالات 30% :
مؤقت
من 02 الساعة 08 UTC إلى 02 الساعة 10 UTC
الرؤية: 4500 متر
مطر
أصبح
من 02 الساعة 10 UTC إلى 02 الساعة 12 UTC
ريح 10 عقدة من الغرب
أصبح
من 02 الساعة 15 UTC إلى 02 الساعة 17 UTC
ريح عقدة من الشمال

TAF: FMNN 011700Z 0118/0218 00000KT 9999 SCT020 PROB40 TEMPO 0200/0202 4500 RA PROB30 TEMPO 0208/0210 4500 RA BECMG 0210/0212 26010KT BECMG 0215/0217 00000KT

أرصاد الطقس والتوقعات من أكثر من 4000 مطار (تقارير الطقس للمطار METAR والتنبؤ بالطقس بالمطارTAF).

المحطات المتاحة هي النقط الصفراء والحمراء على الخريطة.

حرك المؤشر فوق النقطة لمعرفة اسم المحطة.

ثم انقر لمعرفة أرصاد وتوقعات الطقس.

لتغيير الخارطة: اضغط على الأزرار الخضراء مع رمز الصليب الأسود للتكبير. على الزر الأخضر مع شرطة للتصغير، أو على الأسهم الخضراء للخرائط المجاورة.


METAR-TAF: